This is the latest recevied weather packets stored in our database for station/object K2RMB. If no packets are shown the sender has not sent any weather packets the latest 10 day(s).
| Time | Temp. | Humidity | Pressure | Rain* | Wind** | Luminosity | Snow |
|---|---|---|---|---|---|---|---|
| 1777469739 | 14.44° C | 55% | 1015.6 hPa | 0 mm | - | 632 W/m² | - |
| 1777468527 | 13.33° C | 57% | 1015.6 hPa | 0 mm | - | 492 W/m² | - |
| 1777468224 | 13.33° C | 58% | 1016.1 hPa | 0 mm | - | 495 W/m² | - |
| 1777465795 | 11.67° C | 57% | 1016.7 hPa | 0 mm | - | 204 W/m² | - |
| 1777465189 | 11.11° C | 60% | 1016.4 hPa | 0 mm | - | 154 W/m² | - |
| 1777464580 | 11.11° C | 59% | 1016.7 hPa | 0 mm | - | 156 W/m² | - |
| 1777463060 | 10.56° C | 59% | 1017.1 hPa | 0 mm | - | 144 W/m² | - |
| 1777462755 | 10.56° C | 59% | 1017.1 hPa | 0 mm | - | 109 W/m² | - |
| 1777462450 | 10.56° C | 59% | 1017.1 hPa | 0 mm | - | 100 W/m² | - |
| 1777462147 | 10.56° C | 59% | 1017.1 hPa | 0 mm | - | 96 W/m² | - |
| 1777461843 | 10° C | 59% | 1017.4 hPa | 0 mm | - | 80 W/m² | - |
| 1777461540 | 10° C | 61% | 1017.1 hPa | 0 mm | - | 92 W/m² | - |
| 1777461235 | 9.44° C | 59% | 1017.1 hPa | 0 mm | - | 84 W/m² | - |
| 1777460930 | 9.44° C | 61% | 1017.1 hPa | 0 mm | - | 86 W/m² | - |
| 1777460626 | 8.89° C | 62% | 1017.1 hPa | 0 mm | - | 72 W/m² | - |
| 1777460322 | 8.89° C | 62% | 1017.1 hPa | 0 mm | - | 55 W/m² | - |
| 1777460019 | 8.33° C | 62% | 1017.1 hPa | 0 mm | - | 56 W/m² | - |
| 1777459716 | 8.33° C | 64% | 1017.1 hPa | 0 mm | - | 50 W/m² | - |
| 1777459111 | 8.33° C | 64% | 1017.1 hPa | 0 mm | - | 41 W/m² | - |
| 1777458808 | 8.33° C | 65% | 1017.1 hPa | 0 mm | - | 35 W/m² | - |
| 1777458504 | 7.78° C | 63% | 1017.1 hPa | 0 mm | - | 29 W/m² | - |
| 1777457896 | 7.78° C | 63% | 1016.7 hPa | 0 mm | - | 17 W/m² | - |
| 1777457592 | 7.78° C | 65% | 1016.7 hPa | 0 mm | - | 14 W/m² | - |
| 1777457287 | 8.33° C | 63% | 1016.7 hPa | 0 mm | - | 11 W/m² | - |
| 1777456678 | 8.33° C | 62% | 1017.1 hPa | 0 mm | - | 4 W/m² | - |
* Rain latest hour (hover to see other rain measurements)
** Current wind speed in m/s (hover to see current wind gust speed)